Rechercher aéroport 
image banner adimage banner adimage banner ad
image banner ad

CL62 - Station 125

Situé à Calabasas, United States

ICAO - CL62, IATA -

Données fournies par Airmate  

Information générale

Coordonnées: N34°9'5" W118°41'52"
Élévation : 850 feet MSL.
Variation magnétique : 14° East
Voir autres Aéroports à California

Données opérationnelles

Special qualification required
Heure actuelle UTC:
Heure actuelle locale:
Météo à : KVNY - Van Nuys ( 20 km )
METAR: KVNY 292351Z 30009KT 10SM CLR 37/02 A2983 RMK AO2 SLP092 T03670022 10378 20317 56012
TAF: KVNY 292348Z 3000/3024 29006KT P6SM SKC FM300700 VRB03KT P6SM SKC FM301700 14005KT P6SM SKC FM302100 14009KT P6SM SKC
Voir NOTAMs / SUP AIP / TFR affectant cet aéroport [VIEW]
Fréquences de communication: [VIEW]

Pistes:

Coordonnées de l'aéroport

Adresse: Calabasas United States

Vue satellite de CL62